Hlavní strana
METAR-TAF:

METAR-TAF

Letiště :

Letiště Oslo

Oslo, Norsko

zeměpisná šířka: 60-12N, zeměpisná délka: 011-05E, výška: 208 m

Aktuální stav počasí

Zpráva byla vytvořena před 31 minutami, v 19:50 UTC
Západní vítr 3 kt, proměnlivý mezi západojihozápadním a západoseverozápadním
Teplota 2°C
Vlhkost vzduchu 60%
Tlak 1022 hPa
Viditelnost 10 km a více
Žádná oblačnost pod 1500 m, nevyskytují se cumulonimby.

METAR: ENGM 131950Z 27003KT 240V300 CAVOK 02/M05 Q1022 NOSIG

Čas: 22:21 (20:21 UTC)

Předpověď počasí

Předpověď platná od 13 v 18 UTC do 14 v 18 UTC
Severní vítr 5 kt
Viditelnost 10 km a více
Skoro jasno ve výšce 4500 ft
Polojasno ve výšce 5000 ft
Pravděpodobnost 40% :
Dočasný
od 13 v 18 UTC do 13 v 19 UTC
Viditelnost: 4000 m
ve výšce 1200 ft
slabé sněhové přeháňky

TAF: ENGM 1318/1418 35005KT 9999 FEW045 SCT050 PROB40 TEMPO 1318/1319 4000 -SHSN VV012

Stav a předpovědi počasí z více než 4 000 letišť (zprávy METAR a TAF).

Červené a žluté tečky na mapě představují dostupné meteorologické stanice.

Když kurzor umístíte na tečku, zobrazí se název stanice.

Pak kliknutím zobrazíte stav a předpověď počasí.

Chcete-li změnit mapu, kliknutím na zelené tlačítko se znaménkem +mapu přiblížíte, kliknutím na zelené tlačítko se znaménkem – mapu oddálíte a kliknutím na zelené šipky přejdete na sousední mapy.


METAR-TAF: